Terminal Aerodrome Forecast
Issued by NWS

Home | Current Version | Previous Version | Graphics & Text | Print | Product List | Glossary On
Versions: 1 2 3 4 5 6 7 8 9 10 11 12 13 14 15 16 17 18
109
FTUS42 KMHX 221141 AAB
TAFISO
TAF AMD
KISO 221141Z 2212/2312 VRB04KT P6SM -SHRA OVC010
     FM221800 18004KT P6SM VCSH BKN010
     FM230100 09010KT 4SM SHRA VCTS OVC010CB
     FM230700 17009KT P6SM BKN030
     FM230900 19009KT P6SM SCT050
      AMD LTD TO CLD VIS AND WIND=

USA.gov is the U.S. government's official web portal to all federal, state and local government web resources and services.